createdAt,value
2022-08-14T00:00:22.076Z,98876.59
2022-08-14T00:01:24.898Z,98870.78
2022-08-14T00:02:27.855Z,98872.69
2022-08-14T00:03:34.662Z,98867.41
2022-08-14T00:04:41.977Z,98866.69
2022-08-14T00:05:47.837Z,98877.53
2022-08-14T00:07:00.759Z,98878.63
2022-08-14T00:08:03.334Z,98884.97
2022-08-14T00:09:16.698Z,98873.41
2022-08-14T00:10:49.638Z,98872.84
2022-08-14T00:11:43.770Z,98874.91
2022-08-14T00:12:56.447Z,98872.09
2022-08-14T00:14:02.183Z,98876.75
2022-08-14T00:15:19.474Z,98874.84
2022-08-14T00:16:41.711Z,98874.97
2022-08-14T00:17:53.099Z,98876.47
2022-08-14T00:19:18.694Z,98880.56
2022-08-14T00:20:24.210Z,98869.81
2022-08-14T00:21:33.559Z,98871.50
2022-08-14T00:22:56.141Z,98877.34
2022-08-14T00:24:01.711Z,98868.25
2022-08-14T00:25:07.279Z,98859.69
2022-08-14T00:26:22.951Z,98860.13
2022-08-14T00:27:25.795Z,98860.47
2022-08-14T00:28:35.267Z,98860.78
2022-08-14T00:29:40.596Z,98854.38
2022-08-14T00:30:48.464Z,98865.47
2022-08-14T00:31:56.068Z,98866.31
2022-08-14T00:32:59.290Z,98861.69
2022-08-14T00:34:37.521Z,98864.53
2022-08-14T00:36:33.783Z,98864.03
2022-08-14T00:36:49.582Z,98850.69
2022-08-14T00:37:52.521Z,98861.44
2022-08-14T00:38:55.469Z,98859.47
2022-08-14T00:39:58.934Z,98864.06
2022-08-14T00:41:07.072Z,98847.78
2022-08-14T00:42:52.357Z,98856.97
2022-08-14T00:43:45.693Z,98850.09
2022-08-14T00:44:49.477Z,98861.28
2022-08-14T00:45:52.805Z,98858.91
2022-08-14T00:46:58.786Z,98855.34
2022-08-14T00:48:01.582Z,98856.00
2022-08-14T00:49:04.394Z,98858.97
2022-08-14T00:50:09.584Z,98858.00
2022-08-14T00:51:21.685Z,98851.69
2022-08-14T00:52:25.559Z,98851.34
2022-08-14T00:53:29.276Z,98855.69
2022-08-14T00:54:31.833Z,98852.19
2022-08-14T00:55:36.146Z,98850.34
2022-08-14T00:56:41.377Z,98858.94
2022-08-14T00:57:43.799Z,98863.72
2022-08-14T00:58:48.520Z,98860.66
2022-08-14T00:59:51.525Z,98864.38
2022-08-14T01:00:57.591Z,98847.00
2022-08-14T01:02:01.056Z,98847.09
2022-08-14T01:03:05.531Z,98852.59
2022-08-14T01:04:08.557Z,98846.22
2022-08-14T01:05:50.602Z,98853.38
2022-08-14T01:06:55.219Z,98853.88
2022-08-14T01:08:01.871Z,98842.09
2022-08-14T01:09:05.857Z,98851.91
2022-08-14T01:10:10.463Z,98852.66
2022-08-14T01:11:19.246Z,98842.31
2022-08-14T01:12:27.238Z,98853.91
2022-08-14T01:13:42.505Z,98848.38
2022-08-14T01:14:45.700Z,98841.75
2022-08-14T01:15:58.226Z,98845.03
2022-08-14T01:17:04.543Z,98831.66
2022-08-14T01:18:45.450Z,98831.16
2022-08-14T01:20:27.463Z,98841.25
2022-08-14T01:21:46.859Z,98840.97
2022-08-14T01:22:51.376Z,98843.31
2022-08-14T01:23:54.610Z,98837.97
2022-08-14T01:24:59.581Z,98836.09
2022-08-14T01:26:04.611Z,98832.06
2022-08-14T01:27:17.943Z,98828.16
2022-08-14T01:28:47.399Z,98823.94
2022-08-14T01:29:59.005Z,98827.66
2022-08-14T01:31:17.777Z,98818.63
2022-08-14T01:32:22.592Z,98811.69
2022-08-14T01:33:30.495Z,98810.84
2022-08-14T01:35:21.297Z,98808.59
2022-08-14T01:36:21.122Z,98813.13
2022-08-14T01:37:26.039Z,98806.97
2022-08-14T01:38:37.319Z,98814.59
2022-08-14T01:39:40.692Z,98809.19
2022-08-14T01:40:43.091Z,98804.59
2022-08-14T01:41:56.263Z,98809.56
2022-08-14T01:43:02.787Z,98813.31
2022-08-14T01:44:32.350Z,98812.75
2022-08-14T01:45:40.446Z,98803.91
2022-08-14T01:46:45.104Z,98803.44
2022-08-14T01:47:50.638Z,98813.69
2022-08-14T01:48:53.932Z,98811.59
2022-08-14T01:50:00.009Z,98801.16
2022-08-14T01:51:19.147Z,98803.47
2022-08-14T01:52:57.665Z,98812.66
2022-08-14T01:53:47.901Z,98803.47
2022-08-14T01:54:57.996Z,98804.03
2022-08-14T01:56:04.912Z,98810.72
2022-08-14T01:57:14.980Z,98803.84
2022-08-14T01:58:28.605Z,98807.88
2022-08-14T01:59:38.076Z,98808.13
2022-08-14T02:00:41.590Z,98811.09
2022-08-14T02:01:51.483Z,98803.66
2022-08-14T02:03:01.738Z,98803.66
2022-08-14T02:04:05.947Z,98805.88
2022-08-14T02:05:35.736Z,98807.78
2022-08-14T02:06:42.170Z,98803.03
2022-08-14T02:07:55.925Z,98799.50
2022-08-14T02:09:19.155Z,98798.94
2022-08-14T02:10:29.124Z,98793.84
2022-08-14T02:11:31.855Z,98796.09
2022-08-14T02:12:34.847Z,98793.78
2022-08-14T02:13:38.151Z,98792.00
2022-08-14T02:14:40.874Z,98791.59
2022-08-14T02:16:02.047Z,98797.53
2022-08-14T02:17:24.395Z,98792.16
2022-08-14T02:18:28.503Z,98786.84
2022-08-14T02:19:35.888Z,98789.19
2022-08-14T02:20:38.609Z,98785.69
2022-08-14T02:21:48.962Z,98793.22
2022-08-14T02:22:55.006Z,98790.69
2022-08-14T02:23:57.660Z,98785.22
2022-08-14T02:25:01.218Z,98784.91
2022-08-14T02:26:29.804Z,98781.25
2022-08-14T02:28:23.038Z,98779.84
2022-08-14T02:29:03.466Z,98779.41
2022-08-14T02:30:07.496Z,98779.59
2022-08-14T02:31:12.233Z,98764.13
2022-08-14T02:32:29.942Z,98763.69
2022-08-14T02:33:33.513Z,98768.03
2022-08-14T02:34:36.938Z,98758.72
2022-08-14T02:35:43.405Z,98764.91
2022-08-14T02:37:04.860Z,98770.97
2022-08-14T02:38:11.789Z,98776.25
2022-08-14T02:39:30.590Z,98759.19
2022-08-14T02:40:34.312Z,98766.19
2022-08-14T02:41:45.044Z,98770.53
2022-08-14T02:42:57.790Z,98767.47
2022-08-14T02:44:00.947Z,98764.41
2022-08-14T02:45:05.360Z,98766.38
2022-08-14T02:46:12.666Z,98770.31
2022-08-14T02:47:19.202Z,98769.41
2022-08-14T02:49:02.946Z,98750.38
2022-08-14T02:49:46.031Z,98759.88
2022-08-14T02:50:53.543Z,98757.13
2022-08-14T02:51:58.100Z,98754.91
2022-08-14T02:53:03.156Z,98744.56
2022-08-14T02:54:07.555Z,98750.88
2022-08-14T02:55:10.429Z,98751.69
2022-08-14T02:56:30.112Z,98751.91
2022-08-14T02:57:40.312Z,98748.16
2022-08-14T02:58:52.966Z,98743.81
2022-08-14T02:59:59.115Z,98739.69
2022-08-14T03:01:01.796Z,98751.38
2022-08-14T03:02:05.080Z,98723.66
2022-08-14T03:03:08.515Z,98733.06
2022-08-14T03:04:12.710Z,98739.59
2022-08-14T03:05:15.051Z,98739.72
2022-08-14T03:06:49.051Z,98733.84
2022-08-14T03:07:44.003Z,98735.59
2022-08-14T03:08:48.412Z,98731.28
2022-08-14T03:10:25.850Z,98736.47
2022-08-14T03:11:14.370Z,98735.22
2022-08-14T03:12:31.677Z,98732.47
2022-08-14T03:13:40.951Z,98732.72
2022-08-14T03:14:49.169Z,98730.22
2022-08-14T03:15:55.105Z,98726.41
2022-08-14T03:16:58.002Z,98732.97
2022-08-14T03:18:02.031Z,98729.91
2022-08-14T03:19:08.694Z,98730.13
2022-08-14T03:20:14.367Z,98736.69
2022-08-14T03:21:20.579Z,98736.06
2022-08-14T03:22:23.881Z,98725.81
2022-08-14T03:23:38.141Z,98729.06
2022-08-14T03:24:41.647Z,98725.59
2022-08-14T03:25:44.293Z,98724.63
2022-08-14T03:26:47.621Z,98727.50
2022-08-14T03:27:58.941Z,98722.72
2022-08-14T03:29:06.282Z,98721.69
2022-08-14T03:30:23.455Z,98722.00
2022-08-14T03:31:27.942Z,98722.84
2022-08-14T03:32:33.852Z,98723.56
2022-08-14T03:33:40.785Z,98726.56
2022-08-14T03:34:52.602Z,98720.63
2022-08-14T03:36:05.664Z,98724.97
2022-08-14T03:37:39.354Z,98720.50
2022-08-14T03:39:13.885Z,98723.16
2022-08-14T03:40:11.649Z,98726.53
2022-08-14T03:41:24.857Z,98723.16
2022-08-14T03:42:35.974Z,98722.94
2022-08-14T03:43:40.071Z,98729.94
2022-08-14T03:45:18.685Z,98718.28
2022-08-14T03:46:10.193Z,98719.13
2022-08-14T03:47:46.365Z,98726.84
2022-08-14T03:48:54.404Z,98729.19
2022-08-14T03:49:58.313Z,98729.19
2022-08-14T03:51:01.561Z,98734.06
2022-08-14T03:52:18.031Z,98716.81
2022-08-14T03:53:27.921Z,98734.78
2022-08-14T03:54:35.716Z,98723.47
2022-08-14T03:55:38.902Z,98731.94
2022-08-14T03:56:44.910Z,98731.75
2022-08-14T03:57:48.238Z,98723.81
2022-08-14T03:58:53.020Z,98722.22
2022-08-14T03:59:55.382Z,98724.84
2022-08-14T04:00:59.658Z,98721.03
2022-08-14T04:02:04.328Z,98722.53
2022-08-14T04:03:10.393Z,98726.97
2022-08-14T04:04:13.329Z,98726.84
2022-08-14T04:05:16.509Z,98726.09
2022-08-14T04:06:22.352Z,98719.66
2022-08-14T04:08:08.373Z,98719.13
2022-08-14T04:09:20.638Z,98720.50
2022-08-14T04:10:32.120Z,98716.50
2022-08-14T04:11:39.201Z,98717.22
2022-08-14T04:12:43.221Z,98701.81
2022-08-14T04:13:54.697Z,98708.78
2022-08-14T04:14:58.453Z,98701.38
2022-08-14T04:16:06.714Z,98714.91
2022-08-14T04:17:09.983Z,98704.44
2022-08-14T04:18:12.662Z,98704.66
2022-08-14T04:19:23.063Z,98704.22
2022-08-14T04:20:25.854Z,98702.22
2022-08-14T04:22:03.078Z,98699.59
2022-08-14T04:23:07.928Z,98697.78
2022-08-14T04:24:21.056Z,98698.28
2022-08-14T04:25:28.206Z,98700.53
2022-08-14T04:26:42.208Z,98700.91
2022-08-14T04:27:48.758Z,98706.75
2022-08-14T04:29:13.967Z,98701.00
2022-08-14T04:30:29.674Z,98697.09
2022-08-14T04:32:58.211Z,98709.31
2022-08-14T04:33:06.432Z,98701.13
2022-08-14T04:34:20.837Z,98696.78
2022-08-14T04:35:50.771Z,98700.13
2022-08-14T04:37:10.875Z,98697.31
2022-08-14T04:38:39.949Z,98695.13
2022-08-14T04:40:03.065Z,98695.72
2022-08-14T04:41:24.388Z,98690.75
2022-08-14T04:42:51.560Z,98688.69
2022-08-14T04:43:54.418Z,98693.72
2022-08-14T04:45:00.977Z,98699.66
2022-08-14T04:46:56.403Z,98687.13
2022-08-14T04:47:56.424Z,98688.13
2022-08-14T04:49:00.081Z,98686.69
2022-08-14T04:50:04.924Z,98682.50
2022-08-14T04:51:10.971Z,98690.50
2022-08-14T04:52:15.379Z,98679.31
2022-08-14T04:53:35.527Z,98675.81
2022-08-14T04:54:38.913Z,98686.00
2022-08-14T04:55:50.047Z,98688.31
2022-08-14T04:56:56.208Z,98691.78
2022-08-14T04:57:59.240Z,98682.19
2022-08-14T04:59:10.273Z,98683.50
2022-08-14T05:00:16.019Z,98685.97
2022-08-14T05:01:21.141Z,98684.50
2022-08-14T05:02:24.484Z,98677.16
2022-08-14T05:03:31.341Z,98681.94
2022-08-14T05:04:33.905Z,98691.84
2022-08-14T05:05:42.287Z,98677.31
2022-08-14T05:06:45.275Z,98683.41
2022-08-14T05:08:01.433Z,98680.72
2022-08-14T05:09:05.161Z,98689.41
2022-08-14T05:10:13.300Z,98684.03
2022-08-14T05:11:19.366Z,98688.22
2022-08-14T05:13:13.018Z,98688.22
2022-08-14T05:15:10.283Z,98683.22
2022-08-14T05:16:13.185Z,98683.97
2022-08-14T05:17:17.288Z,98688.78
2022-08-14T05:19:17.110Z,98679.81
2022-08-14T05:21:10.748Z,98673.31
2022-08-14T05:21:56.922Z,98674.94
2022-08-14T05:22:31.985Z,98667.34
2022-08-14T05:23:37.469Z,98669.31
2022-08-14T05:24:40.582Z,98677.50
2022-08-14T05:25:43.144Z,98681.03
2022-08-14T05:26:46.764Z,98672.28
2022-08-14T05:27:49.717Z,98671.50
2022-08-14T05:28:52.121Z,98679.22
2022-08-14T05:29:56.962Z,98678.38
2022-08-14T05:31:02.563Z,98686.25
2022-08-14T05:32:08.672Z,98679.69
2022-08-14T05:33:12.674Z,98682.06
2022-08-14T05:34:15.089Z,98681.41
2022-08-14T05:35:19.354Z,98673.97
2022-08-14T05:36:25.643Z,98680.97
2022-08-14T05:37:30.743Z,98674.69
2022-08-14T05:38:36.924Z,98677.13
2022-08-14T05:39:41.551Z,98676.16
2022-08-14T05:40:44.265Z,98674.53
2022-08-14T05:41:53.337Z,98680.06
2022-08-14T05:42:56.696Z,98670.91
2022-08-14T05:44:00.806Z,98678.41
2022-08-14T05:45:05.216Z,98676.00
2022-08-14T05:46:18.374Z,98678.56
2022-08-14T05:47:20.615Z,98670.19
2022-08-14T05:48:33.018Z,98664.75
2022-08-14T05:49:36.457Z,98674.59
2022-08-14T05:50:40.751Z,98668.59
2022-08-14T05:51:46.818Z,98668.09
2022-08-14T05:52:50.977Z,98671.44
2022-08-14T05:54:00.044Z,98662.44
2022-08-14T05:55:14.228Z,98665.41
2022-08-14T05:56:16.617Z,98673.06
2022-08-14T05:57:18.895Z,98673.69
2022-08-14T05:58:22.285Z,98665.72
2022-08-14T05:59:39.540Z,98664.25
2022-08-14T06:00:46.271Z,98665.63
2022-08-14T06:01:50.517Z,98663.09
2022-08-14T06:02:56.104Z,98664.75
2022-08-14T06:03:59.672Z,98668.41
2022-08-14T06:05:03.165Z,98658.81
2022-08-14T06:06:05.648Z,98669.69
2022-08-14T06:07:08.184Z,98668.44
2022-08-14T06:08:41.538Z,98662.88
2022-08-14T06:09:52.210Z,98664.91
2022-08-14T06:10:57.600Z,98659.38
2022-08-14T06:12:00.268Z,98663.31
2022-08-14T06:13:03.398Z,98657.47
2022-08-14T06:14:06.625Z,98657.69
2022-08-14T06:15:14.937Z,98660.72
2022-08-14T06:16:18.875Z,98653.09
2022-08-14T06:17:25.639Z,98660.88
2022-08-14T06:18:32.050Z,98652.47
2022-08-14T06:19:34.698Z,98648.97
2022-08-14T06:20:38.398Z,98648.28
2022-08-14T06:21:43.966Z,98640.66
2022-08-14T06:22:52.967Z,98647.53
2022-08-14T06:24:00.702Z,98642.00
2022-08-14T06:25:07.193Z,98646.84
2022-08-14T06:26:12.889Z,98635.06
2022-08-14T06:27:16.669Z,98642.06
2022-08-14T06:28:27.262Z,98638.56
2022-08-14T06:29:32.421Z,98630.91
2022-08-14T06:30:45.975Z,98630.16
2022-08-14T06:32:00.040Z,98622.50
2022-08-14T06:33:06.859Z,98622.81
2022-08-14T06:35:04.522Z,98619.16
2022-08-14T06:35:33.656Z,98629.75
2022-08-14T06:36:37.923Z,98626.28
2022-08-14T06:37:42.287Z,98626.72
2022-08-14T06:38:44.622Z,98617.69
2022-08-14T06:39:47.035Z,98619.94
2022-08-14T06:40:50.840Z,98618.28
2022-08-14T06:41:59.387Z,98617.16
2022-08-14T06:43:12.020Z,98614.47
2022-08-14T06:44:19.293Z,98617.16
2022-08-14T06:45:26.334Z,98607.84
2022-08-14T06:46:34.161Z,98611.88
2022-08-14T06:47:43.928Z,98605.44
2022-08-14T06:48:49.829Z,98612.19
2022-08-14T06:49:58.206Z,98592.22
2022-08-14T06:51:01.420Z,98610.91
2022-08-14T06:52:04.956Z,98605.50
2022-08-14T06:53:08.322Z,98611.63
2022-08-14T06:54:10.878Z,98603.38
2022-08-14T06:55:17.355Z,98601.13
2022-08-14T06:56:19.872Z,98607.16
2022-08-14T06:57:22.662Z,98606.19
2022-08-14T06:58:29.370Z,98603.50
2022-08-14T06:59:33.807Z,98604.19
2022-08-14T07:00:36.503Z,98605.56
2022-08-14T07:01:58.401Z,98606.38
2022-08-14T07:03:21.745Z,98603.41
2022-08-14T07:04:43.258Z,98613.06
2022-08-14T07:05:57.843Z,98610.00
2022-08-14T07:07:01.212Z,98610.25
2022-08-14T07:08:15.831Z,98609.00
2022-08-14T07:09:23.155Z,98612.06
2022-08-14T07:10:27.147Z,98608.59
2022-08-14T07:11:30.434Z,98619.25
2022-08-14T07:12:56.365Z,98611.41
2022-08-14T07:13:59.218Z,98609.44
2022-08-14T07:15:03.153Z,98614.53
2022-08-14T07:16:07.355Z,98611.09
2022-08-14T07:17:10.212Z,98614.91
2022-08-14T07:18:14.142Z,98609.25
2022-08-14T07:19:21.105Z,98604.09
2022-08-14T07:20:31.064Z,98602.56
2022-08-14T07:21:34.635Z,98601.38
2022-08-14T07:22:55.893Z,98609.78
2022-08-14T07:23:59.633Z,98606.31
2022-08-14T07:25:02.360Z,98608.28
2022-08-14T07:26:07.560Z,98608.53
2022-08-14T07:27:13.251Z,98600.94
2022-08-14T07:28:20.911Z,98603.63
2022-08-14T07:29:26.232Z,98607.59
2022-08-14T07:30:35.268Z,98613.56
2022-08-14T07:31:37.935Z,98611.34
2022-08-14T07:32:40.765Z,98614.63
2022-08-14T07:33:50.819Z,98619.94
2022-08-14T07:34:54.147Z,98620.72
2022-08-14T07:36:01.448Z,98627.84
2022-08-14T07:37:05.761Z,98630.53
2022-08-14T07:38:08.789Z,98623.00
2022-08-14T07:39:19.426Z,98621.53
2022-08-14T07:40:31.336Z,98613.34
2022-08-14T07:41:37.812Z,98618.72
2022-08-14T07:42:42.006Z,98617.75
2022-08-14T07:43:47.521Z,98620.09
2022-08-14T07:44:59.947Z,98621.28
2022-08-14T07:46:04.159Z,98622.31
2022-08-14T07:47:09.911Z,98621.19
2022-08-14T07:48:14.816Z,98619.91
2022-08-14T07:49:21.268Z,98615.59
2022-08-14T07:50:27.150Z,98606.47
2022-08-14T07:51:39.542Z,98608.72
2022-08-14T07:52:43.980Z,98613.06
2022-08-14T07:53:48.511Z,98613.38
2022-08-14T07:55:01.160Z,98610.22
2022-08-14T07:56:21.618Z,98600.97
2022-08-14T07:57:28.204Z,98599.66
2022-08-14T07:58:34.422Z,98598.13
2022-08-14T07:59:49.496Z,98598.09
2022-08-14T08:00:56.803Z,98588.22
2022-08-14T08:02:00.353Z,98590.19
2022-08-14T08:03:04.529Z,98589.38
2022-08-14T08:04:24.218Z,98592.19
2022-08-14T08:05:28.050Z,98591.78
2022-08-14T08:06:31.074Z,98597.44
2022-08-14T08:07:39.315Z,98593.22
2022-08-14T08:08:43.547Z,98596.75
2022-08-14T08:10:46.558Z,98609.13
2022-08-14T08:11:54.507Z,98595.94
2022-08-14T08:13:07.442Z,98603.50
2022-08-14T08:14:17.202Z,98608.69
2022-08-14T08:15:21.604Z,98607.94
2022-08-14T08:16:28.434Z,98594.31
2022-08-14T08:17:34.347Z,98596.53
2022-08-14T08:18:37.862Z,98587.69
2022-08-14T08:19:42.155Z,98584.41
2022-08-14T08:20:52.220Z,98597.41
2022-08-14T08:21:58.697Z,98588.03
2022-08-14T08:23:06.339Z,98591.94
2022-08-14T08:24:19.784Z,98598.72
2022-08-14T08:25:28.068Z,98589.34
2022-08-14T08:26:31.126Z,98592.22
2022-08-14T08:27:33.499Z,98587.03
2022-08-14T08:28:36.269Z,98590.06
2022-08-14T08:29:40.288Z,98580.38
2022-08-14T08:30:56.634Z,98565.06
2022-08-14T08:32:01.424Z,98573.81
2022-08-14T08:33:10.536Z,98570.50
2022-08-14T08:34:14.206Z,98566.09
2022-08-14T08:35:20.594Z,98576.06
2022-08-14T08:36:23.562Z,98580.38
2022-08-14T08:37:30.738Z,98574.50
2022-08-14T08:39:14.947Z,98583.72
2022-08-14T08:40:08.535Z,98583.22
2022-08-14T08:41:13.022Z,98576.63
2022-08-14T08:42:31.384Z,98570.94
2022-08-14T08:43:46.100Z,98581.66
2022-08-14T08:44:56.796Z,98574.28
2022-08-14T08:46:05.883Z,98570.19
2022-08-14T08:47:08.942Z,98573.81
2022-08-14T08:48:20.583Z,98568.38
2022-08-14T08:49:23.612Z,98569.94
2022-08-14T08:51:43.020Z,98561.75
2022-08-14T08:52:53.340Z,98570.53
2022-08-14T08:54:19.920Z,98564.75
2022-08-14T08:55:40.187Z,98567.75
2022-08-14T08:56:54.323Z,98560.06
2022-08-14T08:58:03.916Z,98573.22
2022-08-14T08:59:20.387Z,98565.56
2022-08-14T09:00:26.310Z,98569.09
2022-08-14T09:01:30.998Z,98563.25
2022-08-14T09:02:34.622Z,98559.63
2022-08-14T09:03:40.789Z,98553.31
2022-08-14T09:04:53.623Z,98554.03
2022-08-14T09:05:57.860Z,98543.47
2022-08-14T09:07:10.201Z,98547.06
2022-08-14T09:08:30.227Z,98542.44
2022-08-14T09:09:54.701Z,98539.34
2022-08-14T09:11:19.017Z,98538.00
2022-08-14T09:12:23.710Z,98541.72
2022-08-14T09:13:26.732Z,98527.81
2022-08-14T09:14:35.165Z,98537.06
2022-08-14T09:15:45.172Z,98536.00
2022-08-14T09:16:50.378Z,98547.94
2022-08-14T09:17:54.671Z,98543.13
2022-08-14T09:18:57.560Z,98547.16
2022-08-14T09:20:02.174Z,98534.41
2022-08-14T09:21:07.588Z,98532.94
2022-08-14T09:22:35.794Z,98539.53
2022-08-14T09:23:35.159Z,98535.72
2022-08-14T09:24:57.347Z,98536.81
2022-08-14T09:26:00.988Z,98554.16
2022-08-14T09:27:06.837Z,98541.97
2022-08-14T09:28:10.308Z,98545.72
2022-08-14T09:29:13.337Z,98553.19
2022-08-14T09:30:31.563Z,98547.44
2022-08-14T09:31:42.840Z,98559.94
2022-08-14T09:33:10.961Z,98559.56
2022-08-14T09:34:27.181Z,98559.84
2022-08-14T09:35:40.193Z,98558.44
2022-08-14T09:36:45.645Z,98565.31
2022-08-14T09:38:26.143Z,98564.69
2022-08-14T09:39:38.723Z,98557.41
2022-08-14T09:41:21.671Z,98566.94
2022-08-14T09:42:53.149Z,98553.88
2022-08-14T09:44:07.927Z,98559.19
2022-08-14T09:45:16.728Z,98554.88
2022-08-14T09:46:21.168Z,98556.72
2022-08-14T09:48:00.841Z,98545.84
2022-08-14T09:49:06.128Z,98541.06
2022-08-14T09:50:31.301Z,98543.75
2022-08-14T09:51:51.633Z,98547.66
2022-08-14T09:53:04.019Z,98544.56
2022-08-14T09:54:17.999Z,98549.38
2022-08-14T09:55:28.315Z,98543.28
2022-08-14T09:56:45.863Z,98539.16
2022-08-14T09:58:09.955Z,98537.56
2022-08-14T09:59:25.044Z,98527.38
2022-08-14T10:00:43.134Z,98516.22
2022-08-14T10:01:46.314Z,98514.94
2022-08-14T10:03:05.564Z,98512.50
2022-08-14T10:04:33.530Z,98515.31
2022-08-14T10:05:39.331Z,98511.25
2022-08-14T10:06:48.191Z,98494.00
2022-08-14T10:07:53.902Z,98504.34
2022-08-14T10:09:02.429Z,98501.91
2022-08-14T10:10:23.070Z,98487.09
2022-08-14T10:11:31.053Z,98496.84
2022-08-14T10:12:52.917Z,98501.66
2022-08-14T10:14:02.862Z,98505.00
2022-08-14T10:15:33.827Z,98506.25
2022-08-14T10:16:43.481Z,98507.91
2022-08-14T10:17:53.368Z,98504.13
2022-08-14T10:19:05.476Z,98510.22
2022-08-14T10:20:40.513Z,98509.75
2022-08-14T10:21:58.433Z,98484.59
2022-08-14T10:23:18.048Z,98487.66
2022-08-14T10:24:36.638Z,98474.09
2022-08-14T10:25:43.784Z,98479.16
2022-08-14T10:27:01.083Z,98474.25
2022-08-14T10:28:04.727Z,98472.03
2022-08-14T10:29:18.302Z,98460.81
2022-08-14T10:30:26.246Z,98463.09
2022-08-14T10:31:45.036Z,98458.94
2022-08-14T10:32:51.608Z,98450.91
2022-08-14T10:34:13.163Z,98463.63
2022-08-14T10:35:31.118Z,98450.91
2022-08-14T10:36:44.864Z,98459.09
2022-08-14T10:37:53.296Z,98465.78
2022-08-14T10:39:04.034Z,98459.06
2022-08-14T10:40:16.943Z,98452.22
2022-08-14T10:41:46.539Z,98445.00
2022-08-14T10:42:52.238Z,98445.44
2022-08-14T10:44:22.665Z,98447.03
2022-08-14T10:45:35.802Z,98441.03
2022-08-14T10:47:39.094Z,98452.91
2022-08-14T10:48:37.022Z,98436.88
2022-08-14T10:49:58.024Z,98434.13
2022-08-14T10:51:02.803Z,98432.53
2022-08-14T10:52:14.296Z,98429.78
2022-08-14T10:53:39.297Z,98430.84
2022-08-14T10:54:56.377Z,98432.25
2022-08-14T10:56:04.082Z,98422.69
2022-08-14T10:57:26.620Z,98437.28
2022-08-14T10:58:32.964Z,98425.19
2022-08-14T10:59:49.913Z,98430.63
2022-08-14T11:00:58.811Z,98424.75
2022-08-14T11:02:02.659Z,98419.34
2022-08-14T11:03:11.087Z,98406.44
2022-08-14T11:04:27.738Z,98422.91
2022-08-14T11:05:45.316Z,98426.25
2022-08-14T11:06:57.363Z,98426.47
2022-08-14T11:08:01.302Z,98413.28
2022-08-14T11:09:17.100Z,98417.47
2022-08-14T11:10:21.283Z,98428.56
2022-08-14T11:11:35.818Z,98428.94
2022-08-14T11:12:57.139Z,98426.66
2022-08-14T11:14:00.414Z,98432.69
2022-08-14T11:15:04.195Z,98423.47
2022-08-14T11:16:11.115Z,98419.97
2022-08-14T11:17:14.273Z,98415.63
2022-08-14T11:18:36.084Z,98421.25
2022-08-14T11:19:43.749Z,98422.50
2022-08-14T11:20:59.863Z,98419.19
2022-08-14T11:22:03.876Z,98418.94
2022-08-14T11:23:11.044Z,98427.72
2022-08-14T11:24:54.014Z,98423.72
2022-08-14T11:25:53.302Z,98433.13
2022-08-14T11:26:58.533Z,98427.06
2022-08-14T11:28:02.236Z,98433.56
2022-08-14T11:29:06.037Z,98422.28
2022-08-14T11:30:50.742Z,98421.53
2022-08-14T11:31:40.365Z,98423.63
2022-08-14T11:32:48.726Z,98420.06
2022-08-14T11:33:58.165Z,98425.66
2022-08-14T11:35:03.514Z,98424.00
2022-08-14T11:36:18.296Z,98414.50
2022-08-14T11:37:33.895Z,98413.91
2022-08-14T11:38:48.201Z,98428.91
2022-08-14T11:39:51.683Z,98417.09
2022-08-14T11:40:56.685Z,98425.72
2022-08-14T11:42:00.595Z,98420.59
2022-08-14T11:43:29.630Z,98420.09
2022-08-14T11:44:46.563Z,98420.03
2022-08-14T11:45:52.147Z,98408.22
2022-08-14T11:46:55.914Z,98407.69
2022-08-14T11:48:13.410Z,98405.81
2022-08-14T11:49:34.888Z,98403.00
2022-08-14T11:50:38.557Z,98394.09
2022-08-14T11:51:53.931Z,98400.13
2022-08-14T11:53:02.490Z,98395.00
2022-08-14T11:54:08.468Z,98395.41
2022-08-14T11:55:13.981Z,98389.81
2022-08-14T11:56:17.564Z,98388.19
2022-08-14T11:57:22.918Z,98382.41
2022-08-14T11:58:28.530Z,98383.78
2022-08-14T11:59:33.962Z,98386.63
2022-08-14T12:00:59.986Z,98385.44
2022-08-14T12:02:38.997Z,98376.78
2022-08-14T12:03:52.184Z,98380.38
2022-08-14T12:05:00.463Z,98374.75
2022-08-14T12:06:29.082Z,98376.03
2022-08-14T12:07:34.946Z,98363.84
2022-08-14T12:08:40.238Z,98371.91
2022-08-14T12:09:47.901Z,98367.06
2022-08-14T12:10:59.089Z,98370.41
2022-08-14T12:12:35.977Z,98372.03
2022-08-14T12:13:56.182Z,98362.69
2022-08-14T12:15:01.143Z,98356.91
2022-08-14T12:16:11.105Z,98364.03
2022-08-14T12:17:17.703Z,98360.31
2022-08-14T12:18:42.754Z,98357.59
2022-08-14T12:19:56.655Z,98339.34
2022-08-14T12:21:00.032Z,98343.31
2022-08-14T12:22:02.983Z,98348.63
2022-08-14T12:23:07.708Z,98339.19
2022-08-14T12:24:35.792Z,98352.22
2022-08-14T12:25:35.076Z,98349.47
2022-08-14T12:26:40.753Z,98354.00
2022-08-14T12:27:53.389Z,98350.63
2022-08-14T12:29:13.195Z,98348.56
2022-08-14T12:30:43.008Z,98349.16
2022-08-14T12:31:47.294Z,98347.59
2022-08-14T12:32:53.028Z,98351.66
2022-08-14T12:33:57.430Z,98336.25
2022-08-14T12:34:59.920Z,98348.28
2022-08-14T12:36:09.839Z,98340.25
2022-08-14T12:37:12.135Z,98345.91
2022-08-14T12:38:20.933Z,98340.00
2022-08-14T12:39:24.376Z,98350.53
2022-08-14T12:40:31.428Z,98344.34
2022-08-14T12:41:37.324Z,98341.84
2022-08-14T12:42:47.455Z,98339.94
2022-08-14T12:44:08.310Z,98335.09
2022-08-14T12:45:17.351Z,98334.53
2022-08-14T12:46:30.341Z,98332.97
2022-08-14T12:47:33.464Z,98334.88
2022-08-14T12:48:46.419Z,98328.66
2022-08-14T12:49:57.752Z,98320.88
2022-08-14T12:51:00.730Z,98320.63
2022-08-14T12:52:16.997Z,98323.50
2022-08-14T12:53:22.072Z,98327.00
2022-08-14T12:54:28.331Z,98323.03
2022-08-14T12:56:22.485Z,98319.91
2022-08-14T12:57:17.107Z,98314.84
2022-08-14T12:58:34.949Z,98307.25
2022-08-14T12:59:45.447Z,98298.81
2022-08-14T13:01:16.445Z,98302.13
2022-08-14T13:02:25.982Z,98299.31
2022-08-14T13:03:30.007Z,98292.06
2022-08-14T13:04:35.631Z,98299.06
2022-08-14T13:05:38.213Z,98308.34
2022-08-14T13:06:45.155Z,98297.44
2022-08-14T13:07:53.813Z,98293.88
2022-08-14T13:09:00.011Z,98291.75
2022-08-14T13:10:12.748Z,98298.78
2022-08-14T13:11:36.674Z,98291.53
2022-08-14T13:13:10.132Z,98290.84
2022-08-14T13:14:06.664Z,98282.16
2022-08-14T13:15:17.708Z,98281.78
2022-08-14T13:16:37.627Z,98282.78
2022-08-14T13:17:51.062Z,98270.78
2022-08-14T13:18:57.316Z,98274.28
2022-08-14T13:20:02.632Z,98282.09
2022-08-14T13:21:13.859Z,98271.63
2022-08-14T13:22:32.283Z,98277.13
2022-08-14T13:23:38.758Z,98271.53
2022-08-14T13:24:42.230Z,98270.13
2022-08-14T13:25:56.269Z,98271.00
2022-08-14T13:27:05.233Z,98269.50
2022-08-14T13:28:11.057Z,98268.13
2022-08-14T13:29:20.585Z,98264.75
2022-08-14T13:30:24.957Z,98268.34
2022-08-14T13:31:30.521Z,98264.06
2022-08-14T13:32:34.241Z,98258.13
2022-08-14T13:33:37.207Z,98260.84
2022-08-14T13:34:45.482Z,98247.13
2022-08-14T13:35:51.437Z,98248.28
2022-08-14T13:37:03.657Z,98243.13
2022-08-14T13:38:07.199Z,98242.28
2022-08-14T13:39:17.556Z,98254.81
2022-08-14T13:40:21.839Z,98249.50
2022-08-14T13:41:34.574Z,98248.56
2022-08-14T13:42:48.298Z,98245.63
2022-08-14T13:43:59.947Z,98249.75
2022-08-14T13:45:06.412Z,98250.16
2022-08-14T13:46:08.664Z,98244.31
2022-08-14T13:47:14.750Z,98242.41